Time;durP1;ratioP1;P1;durP2;ratioP2;P2;SDS_P1;SDS_P2;PMS_P1;PMS_P2;Temp;Humidity;BMP_temperature;BMP_pressure;BME280_temperature;BME280_humidity;BME280_pressure;Samples;Min_cycle;Max_cycle;Signal;HPM_P1;HPM_P2
2021/03/18 00:00:19;;;;;;;14.02;3.53;;;14.30;54.20;;;;;;1049617;28;20015;-76
2021/03/18 00:00:52;;;;;;;9.73;3.30;;;14.20;54.20;;;;;;1048345;28;20013;-77
2021/03/18 00:01:24;;;;;;;13.90;3.60;;;14.20;54.30;;;;;;1044465;28;20471;-77
2021/03/18 00:01:56;;;;;;;10.05;3.47;;;14.20;54.30;;;;;;1044863;28;20013;-77
2021/03/18 00:02:27;;;;;;;12.88;3.58;;;14.20;54.40;;;;;;1040191;28;20025;-77
2021/03/18 00:02:58;;;;;;;12.50;3.30;;;14.20;55.10;;;;;;1042462;28;20031;-77
2021/03/18 00:03:32;;;;;;;12.60;3.58;;;14.20;54.60;;;;;;1047278;28;20031;-77
2021/03/18 00:04:05;;;;;;;13.85;3.50;;;14.20;54.20;;;;;;1044942;28;20359;-77
2021/03/18 00:04:36;;;;;;;13.35;4.18;;;14.30;54.30;;;;;;1044085;28;20013;-77
2021/03/18 00:05:09;;;;;;;11.40;3.30;;;14.20;54.40;;;;;;1041006;28;20024;-76
2021/03/18 00:05:40;;;;;;;13.52;4.10;;;14.20;54.50;;;;;;1041417;28;20021;-77
2021/03/18 00:06:12;;;;;;;16.13;4.07;;;14.30;54.10;;;;;;1045255;28;20060;-77
2021/03/18 00:06:45;;;;;;;14.98;3.80;;;14.30;54.00;;;;;;1044579;28;20152;-77
2021/03/18 00:07:16;;;;;;;9.70;3.53;;;14.30;54.10;;;;;;1044079;28;20069;-77
2021/03/18 00:07:48;;;;;;;11.75;3.63;;;14.20;54.20;;;;;;1041351;28;20463;-77
2021/03/18 00:08:21;;;;;;;12.45;3.58;;;14.20;54.10;;;;;;1038716;28;20021;-77
2021/03/18 00:08:52;;;;;;;13.25;3.50;;;14.20;54.10;;;;;;1036482;28;20042;-78
2021/03/18 00:09:25;;;;;;;14.55;3.50;;;14.20;54.10;;;;;;1042389;28;20219;-76
2021/03/18 00:09:56;;;;;;;11.88;3.42;;;14.20;54.10;;;;;;1044999;28;20048;-77
2021/03/18 00:10:28;;;;;;;11.00;3.35;;;14.20;54.30;;;;;;1047116;28;20017;-77
2021/03/18 00:11:03;;;;;;;14.82;3.90;;;14.20;54.40;;;;;;1048981;28;20490;-77
2021/03/18 00:11:36;;;;;;;12.52;3.60;;;14.20;54.20;;;;;;1048863;28;20521;-76
2021/03/18 00:12:08;;;;;;;10.98;3.28;;;14.20;54.00;;;;;;1042989;28;20018;-77
2021/03/18 00:12:40;;;;;;;11.75;3.90;;;14.20;53.90;;;;;;1041406;28;20112;-76
2021/03/18 00:13:12;;;;;;;13.57;3.63;;;14.10;53.80;;;;;;1039777;28;20018;-76
2021/03/18 00:13:44;;;;;;;11.52;3.22;;;14.10;53.90;;;;;;1041918;28;20029;-77
2021/03/18 00:14:20;;;;;;;13.48;3.55;;;14.10;53.80;;;;;;1044358;28;20094;-77
2021/03/18 00:14:51;;;;;;;12.90;3.78;;;14.10;53.70;;;;;;1041955;28;20117;-77
2021/03/18 00:15:24;;;;;;;16.55;3.83;;;14.10;53.80;;;;;;1044547;28;20017;-77
2021/03/18 00:15:57;;;;;;;12.52;3.80;;;14.10;53.90;;;;;;1041557;28;20351;-77
2021/03/18 00:16:28;;;;;;;12.07;3.88;;;14.10;53.90;;;;;;1041382;28;20021;-77
2021/03/18 00:16:59;;;;;;;11.88;4.10;;;14.10;53.90;;;;;;1046097;28;20051;-77
2021/03/18 00:17:31;;;;;;;11.10;3.50;;;14.10;54.20;;;;;;1045062;28;20518;-77
2021/03/18 00:18:06;;;;;;;12.27;3.63;;;14.10;54.20;;;;;;1046324;28;20017;-77
2021/03/18 00:18:45;;;;;;;14.10;3.80;;;14.10;54.10;;;;;;1039076;28;20050;-77
2021/03/18 00:19:16;;;;;;;11.30;3.42;;;14.10;54.00;;;;;;1041803;28;20013;-78
2021/03/18 00:19:48;;;;;;;12.40;3.50;;;14.10;54.00;;;;;;1038818;28;20022;-77
2021/03/18 00:20:19;;;;;;;14.90;3.42;;;14.00;54.00;;;;;;1041001;28;20021;-77
2021/03/18 00:20:51;;;;;;;10.30;3.42;;;14.00;54.00;;;;;;1041512;28;20013;-78
2021/03/18 00:21:23;;;;;;;13.82;3.38;;;14.00;54.10;;;;;;1048992;28;20021;-77
2021/03/18 00:21:54;;;;;;;10.93;3.72;;;14.10;54.00;;;;;;1052863;28;20078;-78
2021/03/18 00:22:26;;;;;;;12.07;3.15;;;14.10;54.10;;;;;;1046758;28;20017;-77
2021/03/18 00:22:57;;;;;;;10.68;3.40;;;14.00;54.00;;;;;;1041636;28;20100;-77
2021/03/18 00:23:30;;;;;;;13.07;3.67;;;14.00;53.90;;;;;;1040876;28;20037;-77
2021/03/18 00:24:02;;;;;;;14.23;3.70;;;14.10;53.80;;;;;;1036895;28;20104;-77
2021/03/18 00:24:33;;;;;;;12.02;3.25;;;14.10;53.90;;;;;;1038770;28;20494;-78
2021/03/18 00:25:07;;;;;;;11.00;3.50;;;14.00;54.10;;;;;;1049439;28;20063;-77
2021/03/18 00:25:38;;;;;;;12.20;3.60;;;14.00;54.20;;;;;;1047924;28;20107;-77
2021/03/18 00:26:10;;;;;;;13.45;3.78;;;14.00;54.30;;;;;;1047892;28;20016;-78
2021/03/18 00:26:41;;;;;;;10.65;3.55;;;14.00;54.30;;;;;;1042599;28;20022;-77
2021/03/18 00:27:13;;;;;;;13.73;3.47;;;13.90;54.20;;;;;;1046176;28;20540;-77
2021/03/18 00:27:47;;;;;;;14.48;3.80;;;14.00;54.30;;;;;;1047972;28;20017;-77
2021/03/18 00:28:18;;;;;;;10.75;3.30;;;13.90;54.20;;;;;;1042363;28;20068;-77
2021/03/18 00:28:50;;;;;;;10.55;3.45;;;13.90;54.30;;;;;;1044759;28;20024;-78
2021/03/18 00:29:21;;;;;;;10.50;3.00;;;13.90;54.40;;;;;;1042646;28;20029;-78
2021/03/18 00:29:52;;;;;;;12.32;3.70;;;13.90;54.40;;;;;;1038548;28;20116;-78
2021/03/18 00:30:25;;;;;;;12.60;3.20;;;13.80;54.40;;;;;;1045394;28;20017;-77
2021/03/18 00:30:56;;;;;;;10.68;3.15;;;13.80;53.90;;;;;;1039550;28;20091;-77
2021/03/18 00:31:30;;;;;;;9.45;2.90;;;13.80;53.20;;;;;;1039064;28;20018;-78
2021/03/18 00:32:02;;;;;;;9.93;3.30;;;13.80;53.00;;;;;;1043630;28;20100;-77
2021/03/18 00:32:34;;;;;;;16.35;3.58;;;13.80;52.50;;;;;;1044519;28;20458;-78
2021/03/18 00:33:05;;;;;;;11.20;3.42;;;13.80;52.60;;;;;;1045209;28;20017;-77
2021/03/18 00:33:37;;;;;;;12.80;3.30;;;13.80;52.50;;;;;;1047821;28;20024;-77
2021/03/18 00:34:08;;;;;;;12.65;3.33;;;13.70;52.50;;;;;;1046692;28;20013;-77
2021/03/18 00:34:40;;;;;;;10.93;3.08;;;13.70;52.60;;;;;;1049211;28;20017;-77
2021/03/18 00:35:12;;;;;;;11.55;3.35;;;13.70;52.80;;;;;;1047744;28;20025;-78
2021/03/18 00:35:44;;;;;;;11.75;3.70;;;13.70;53.10;;;;;;1048556;28;20094;-77
2021/03/18 00:36:15;;;;;;;13.95;3.83;;;13.60;53.30;;;;;;1043481;28;20025;-77
2021/03/18 00:36:47;;;;;;;12.40;3.30;;;13.60;53.40;;;;;;1042977;28;20013;-77
2021/03/18 00:37:19;;;;;;;11.43;3.38;;;13.60;53.40;;;;;;1041955;28;20018;-78
2021/03/18 00:37:52;;;;;;;8.73;2.97;;;13.60;53.10;;;;;;1046395;28;20520;-77
2021/03/18 00:38:25;;;;;;;10.05;3.25;;;13.60;53.20;;;;;;1051775;28;20008;-77
2021/03/18 00:38:57;;;;;;;10.63;3.30;;;13.50;53.40;;;;;;1045830;28;20455;-77
2021/03/18 00:39:29;;;;;;;10.85;3.28;;;13.50;53.80;;;;;;1048777;28;20017;-77
2021/03/18 00:40:01;;;;;;;10.50;3.47;;;13.50;54.10;;;;;;1045892;28;20017;-77
2021/03/18 00:40:42;;;;;;;12.52;3.40;;;13.50;54.10;;;;;;1042303;28;20383;-77
2021/03/18 00:41:15;;;;;;;12.73;3.35;;;13.50;54.10;;;;;;1047011;28;20125;-78
2021/03/18 00:41:46;;;;;;;12.73;3.40;;;13.50;54.10;;;;;;1040607;28;20017;-77
2021/03/18 00:42:17;;;;;;;11.95;3.25;;;13.50;54.10;;;;;;1041578;28;20121;-77
2021/03/18 00:42:55;;;;;;;10.32;3.00;;;13.40;53.90;;;;;;1042318;28;20013;-77
2021/03/18 00:43:27;;;;;;;9.70;3.40;;;13.40;54.10;;;;;;1045998;28;20032;-77
2021/03/18 00:43:58;;;;;;;9.32;3.53;;;13.50;54.20;;;;;;1043494;28;20024;-77
2021/03/18 00:44:29;;;;;;;14.43;3.38;;;13.40;54.10;;;;;;1041853;28;20137;-77
2021/03/18 00:45:01;;;;;;;10.57;3.00;;;13.40;54.20;;;;;;1041824;28;20125;-77
2021/03/18 00:45:35;;;;;;;10.93;3.33;;;13.40;54.40;;;;;;1046008;28;20025;-77
2021/03/18 00:46:07;;;;;;;11.50;3.40;;;13.30;54.40;;;;;;1042704;28;20036;-77
2021/03/18 00:46:39;;;;;;;9.85;3.25;;;13.40;54.40;;;;;;1042784;28;20049;-77
2021/03/18 00:47:10;;;;;;;12.40;3.47;;;13.40;54.30;;;;;;1046102;28;20089;-77
2021/03/18 00:47:41;;;;;;;15.40;3.42;;;13.30;54.30;;;;;;1044214;28;20103;-78
2021/03/18 00:48:14;;;;;;;13.13;3.58;;;13.50;54.30;;;;;;1050853;28;20025;-77
2021/03/18 00:48:46;;;;;;;10.75;2.95;;;13.50;54.40;;;;;;1050094;28;20093;-77
2021/03/18 00:49:17;;;;;;;10.25;3.20;;;13.50;54.10;;;;;;1051013;28;20024;-77
2021/03/18 00:49:49;;;;;;;12.27;3.67;;;13.50;54.10;;;;;;1054049;28;20027;-77
2021/03/18 00:50:29;;;;;;;9.18;3.40;;;13.40;54.30;;;;;;1049863;28;20111;-77
2021/03/18 00:51:02;;;;;;;;;;;13.40;54.30;;;;;;1044483;28;20014;-77
2021/03/18 00:51:34;;;;;;;12.82;3.00;;;13.40;54.40;;;;;;1049159;28;19900;-78
2021/03/18 00:52:05;;;;;;;10.50;3.10;;;13.40;54.60;;;;;;1046256;28;20481;-77
2021/03/18 00:52:36;;;;;;;12.63;3.50;;;13.40;54.60;;;;;;1044228;28;20093;-77
2021/03/18 00:53:10;;;;;;;14.90;3.83;;;13.40;54.60;;;;;;1044342;28;20141;-77
2021/03/18 00:53:45;;;;;;;12.45;3.50;;;13.30;54.50;;;;;;1046216;28;20014;-77
2021/03/18 00:54:16;;;;;;;11.38;3.20;;;13.30;54.60;;;;;;1049084;28;20017;-77
2021/03/18 00:54:48;;;;;;;11.68;3.60;;;13.30;54.70;;;;;;1052207;28;20100;-78
2021/03/18 00:55:19;;;;;;;8.35;3.20;;;13.30;54.60;;;;;;1050238;28;20446;-77
2021/03/18 00:55:52;;;;;;;13.68;3.88;;;13.30;54.60;;;;;;1046771;28;20081;-77
2021/03/18 00:56:24;;;;;;;12.45;3.70;;;13.30;54.70;;;;;;1041911;28;20025;-77
2021/03/18 00:56:56;;;;;;;13.27;3.50;;;13.30;54.80;;;;;;1048056;28;20021;-77
2021/03/18 00:57:28;;;;;;;13.20;3.30;;;13.20;54.90;;;;;;1041681;28;20014;-77
2021/03/18 00:57:59;;;;;;;8.65;3.20;;;13.20;54.90;;;;;;1041608;28;20017;-77
2021/03/18 00:58:31;;;;;;;10.10;3.42;;;13.20;55.00;;;;;;1041286;28;20020;-77
2021/03/18 00:59:02;;;;;;;9.43;3.40;;;13.10;54.80;;;;;;1038212;28;20014;-78
2021/03/18 00:59:33;;;;;;;11.73;3.22;;;13.20;55.00;;;;;;1044772;28;20027;-77
2021/03/18 01:00:10;;;;;;;11.05;3.10;;;13.20;55.00;;;;;;1044403;28;20022;-77
2021/03/18 01:00:50;;;;;;;8.77;3.30;;;13.20;55.10;;;;;;1045994;28;20013;-77
2021/03/18 01:01:24;;;;;;;8.93;3.40;;;13.20;55.20;;;;;;1041722;28;20021;-78
2021/03/18 01:01:56;;;;;;;10.68;3.25;;;13.20;55.10;;;;;;1044189;28;20021;-77
2021/03/18 01:02:27;;;;;;;12.40;3.28;;;13.20;55.20;;;;;;1044425;28;20017;-77
2021/03/18 01:02:58;;;;;;;12.55;3.22;;;13.10;55.40;;;;;;1043850;28;20013;-77
2021/03/18 01:03:33;;;;;;;10.70;3.20;;;13.10;55.30;;;;;;1041986;28;20467;-77
2021/03/18 01:04:05;;;;;;;11.32;3.50;;;13.10;55.50;;;;;;1049212;28;20027;-77
2021/03/18 01:04:36;;;;;;;11.45;3.75;;;13.10;55.60;;;;;;1046764;28;20009;-77
2021/03/18 01:05:11;;;;;;;11.93;3.33;;;13.10;55.70;;;;;;1051881;28;20013;-77
2021/03/18 01:05:56;;;;;;;13.00;3.60;;;13.10;55.70;;;;;;1049862;28;20466;-77
2021/03/18 01:06:30;;;;;;;12.60;3.33;;;13.10;55.60;;;;;;1045023;28;20017;-77
2021/03/18 01:07:01;;;;;;;13.10;3.40;;;13.10;55.90;;;;;;1042018;28;20018;-77
2021/03/18 01:07:33;;;;;;;12.95;3.58;;;13.10;56.00;;;;;;1048363;28;20017;-77
2021/03/18 01:08:05;;;;;;;12.25;3.40;;;13.00;56.00;;;;;;1046610;28;20017;-77
2021/03/18 01:08:37;;;;;;;12.95;3.22;;;13.00;56.20;;;;;;1048288;28;20014;-77
2021/03/18 01:09:10;;;;;;;12.48;3.83;;;13.10;56.10;;;;;;1041732;28;20009;-77
2021/03/18 01:09:41;;;;;;;13.27;3.17;;;13.10;56.00;;;;;;1043725;28;20009;-77
2021/03/18 01:10:15;;;;;;;10.38;3.42;;;13.10;56.20;;;;;;1049887;28;20020;-77
2021/03/18 01:10:55;;;;;;;9.73;3.20;;;13.00;56.30;;;;;;1052487;28;20073;-77
2021/03/18 01:11:34;;;;;;;16.67;3.45;;;13.00;56.40;;;;;;1050171;28;20017;-77
2021/03/18 01:12:06;;;;;;;11.68;3.35;;;12.90;56.60;;;;;;1050248;28;20050;-77
2021/03/18 01:12:37;;;;;;;12.13;3.60;;;13.10;56.60;;;;;;1053384;28;20020;-77
2021/03/18 01:13:09;;;;;;;11.40;4.03;;;13.10;56.50;;;;;;1049787;28;20020;-77
2021/03/18 01:13:47;;;;;;;10.52;3.40;;;13.00;56.70;;;;;;1049178;28;20021;-77
2021/03/18 01:14:19;;;;;;;10.73;3.38;;;13.00;56.80;;;;;;1045776;28;20052;-77
2021/03/18 01:14:50;;;;;;;13.05;3.15;;;13.00;57.00;;;;;;1045173;28;20020;-77
2021/03/18 01:15:24;;;;;;;14.68;3.33;;;13.00;56.90;;;;;;1047779;28;20064;-77
2021/03/18 01:15:59;;;;;;;12.88;3.40;;;13.00;57.00;;;;;;1045994;28;20032;-77
2021/03/18 01:16:35;;;;;;;13.40;3.63;;;13.00;57.00;;;;;;1050134;28;20020;-77
2021/03/18 01:17:06;;;;;;;10.38;3.30;;;13.00;56.90;;;;;;1049826;28;20458;-77
2021/03/18 01:17:38;;;;;;;15.07;3.33;;;13.10;56.90;;;;;;1045858;28;20094;-77
2021/03/18 01:18:09;;;;;;;10.20;3.05;;;13.00;56.60;;;;;;1045212;28;20013;-77
2021/03/18 01:19:05;;;;;;;11.25;3.35;;;13.00;56.60;;;;;;1049222;28;20051;-78
2021/03/18 01:19:37;;;;;;;10.82;3.30;;;13.00;56.90;;;;;;1050583;28;20502;-78
2021/03/18 01:20:13;;;;;;;14.07;3.63;;;13.00;57.00;;;;;;1051493;28;20371;-77
2021/03/18 01:20:45;;;;;;;11.15;3.58;;;12.90;57.10;;;;;;1047337;28;20032;-78
2021/03/18 01:21:18;;;;;;;12.85;3.53;;;12.90;57.80;;;;;;1042759;28;20017;-77
2021/03/18 01:21:56;;;;;;;18.52;3.80;;;12.90;57.40;;;;;;1041495;28;20021;-77
2021/03/18 01:22:28;;;;;;;11.10;3.78;;;12.90;57.40;;;;;;1041060;28;20112;-77
2021/03/18 01:22:59;;;;;;;12.15;3.38;;;12.90;57.40;;;;;;1047820;28;20085;-77
2021/03/18 01:23:31;;;;;;;11.20;3.47;;;12.90;57.40;;;;;;1047559;28;20017;-77
2021/03/18 01:24:06;;;;;;;11.32;3.30;;;12.90;57.30;;;;;;1046321;28;20017;-77
2021/03/18 01:24:37;;;;;;;11.23;3.55;;;13.00;57.40;;;;;;1046743;28;20036;-77
2021/03/18 01:25:09;;;;;;;9.50;3.15;;;13.00;57.10;;;;;;1048628;28;20038;-77
2021/03/18 01:25:42;;;;;;;8.40;3.15;;;13.00;56.80;;;;;;1045240;28;20032;-77
2021/03/18 01:26:14;;;;;;;10.55;3.38;;;13.00;56.90;;;;;;1045744;28;20029;-78
2021/03/18 01:26:46;;;;;;;9.48;3.13;;;13.00;57.00;;;;;;1042006;28;20021;-78
2021/03/18 01:27:17;;;;;;;9.93;3.53;;;12.90;57.00;;;;;;1042545;28;20029;-77
2021/03/18 01:27:48;;;;;;;14.98;3.50;;;12.90;57.20;;;;;;1045629;28;20175;-77
2021/03/18 01:28:20;;;;;;;9.75;3.53;;;12.90;57.20;;;;;;1043373;28;20047;-77
2021/03/18 01:28:51;;;;;;;10.40;3.55;;;12.90;57.30;;;;;;1046230;28;20029;-78
2021/03/18 01:29:24;;;;;;;14.40;3.83;;;12.90;57.10;;;;;;1046367;28;20029;-77
2021/03/18 01:29:55;;;;;;;9.75;3.60;;;12.90;57.10;;;;;;1045430;28;20075;-77
2021/03/18 01:30:27;;;;;;;12.35;4.03;;;12.90;57.20;;;;;;1041718;28;20021;-77
2021/03/18 01:30:59;;;;;;;10.45;3.88;;;12.90;57.30;;;;;;1044831;28;20116;-77
2021/03/18 01:31:32;;;;;;;12.70;3.85;;;12.90;57.20;;;;;;1042486;28;20033;-77
2021/03/18 01:32:03;;;;;;;10.20;3.60;;;13.00;56.80;;;;;;1053043;28;21370;-77
2021/03/18 01:32:35;;;;;;;10.27;3.30;;;12.90;56.80;;;;;;1049284;28;20083;-77
2021/03/18 01:33:08;;;;;;;12.80;3.50;;;12.90;56.80;;;;;;1046909;28;20466;-77
2021/03/18 01:33:40;;;;;;;11.23;3.47;;;13.00;56.70;;;;;;1045996;28;20031;-77
2021/03/18 01:34:12;;;;;;;10.45;3.33;;;13.00;56.70;;;;;;1047413;28;20008;-78
2021/03/18 01:34:44;;;;;;;12.60;3.38;;;12.90;56.60;;;;;;1054043;28;20012;-77
2021/03/18 01:35:20;;;;;;;9.23;3.78;;;12.90;56.50;;;;;;1052828;28;20009;-77
2021/03/18 01:35:52;;;;;;;12.30;3.85;;;13.00;56.30;;;;;;1047762;28;20103;-77
2021/03/18 01:36:24;;;;;;;10.68;3.20;;;13.00;55.90;;;;;;1050444;28;20091;-78
2021/03/18 01:36:55;;;;;;;8.50;3.15;;;13.10;55.60;;;;;;1047651;28;20001;-77
2021/03/18 01:37:26;;;;;;;11.60;3.30;;;13.10;55.60;;;;;;1047248;28;20016;-77
2021/03/18 01:37:58;;;;;;;10.63;3.15;;;13.20;55.60;;;;;;1045877;28;20009;-77
2021/03/18 01:38:31;;;;;;;12.82;3.70;;;13.20;55.30;;;;;;1045813;28;20020;-77
2021/03/18 01:39:05;;;;;;;10.70;3.45;;;13.20;55.30;;;;;;1049077;28;20009;-78
2021/03/18 01:39:36;;;;;;;11.82;3.50;;;13.20;55.20;;;;;;1050842;28;20016;-77
2021/03/18 01:40:09;;;;;;;10.35;3.75;;;13.20;55.40;;;;;;1049003;28;20009;-77
2021/03/18 01:40:41;;;;;;;12.82;3.33;;;13.10;55.40;;;;;;1045151;28;20009;-77
2021/03/18 01:41:15;;;;;;;9.48;3.28;;;13.00;55.20;;;;;;1046495;28;20438;-77
2021/03/18 01:41:47;;;;;;;10.18;3.35;;;13.00;55.20;;;;;;1046927;28;20009;-77
2021/03/18 01:42:18;;;;;;;9.88;3.58;;;13.00;55.70;;;;;;1051381;28;20009;-77
2021/03/18 01:42:50;;;;;;;10.25;3.20;;;12.90;56.00;;;;;;1043291;28;20042;-77
2021/03/18 01:43:26;;;;;;;12.85;3.22;;;12.90;56.00;;;;;;1047686;28;20019;-77
2021/03/18 01:43:58;;;;;;;9.15;3.00;;;13.10;55.90;;;;;;1048326;28;20021;-77
2021/03/18 01:44:29;;;;;;;13.85;3.63;;;13.10;55.50;;;;;;1045795;28;20020;-77
2021/03/18 01:45:03;;;;;;;11.93;3.90;;;13.20;55.40;;;;;;1048724;28;20086;-77
2021/03/18 01:45:34;;;;;;;10.13;3.55;;;13.10;55.60;;;;;;1047711;28;20016;-78
2021/03/18 01:46:06;;;;;;;11.35;4.18;;;13.00;55.40;;;;;;1046166;28;20053;-77
2021/03/18 01:46:37;;;;;;;9.98;4.45;;;13.00;55.70;;;;;;1051364;28;20013;-77
2021/03/18 01:47:09;;;;;;;11.57;3.63;;;12.90;55.80;;;;;;1046523;28;20024;-77
2021/03/18 01:47:43;;;;;;;10.30;3.45;;;12.90;55.80;;;;;;1046309;28;20056;-77
2021/03/18 01:48:15;;;;;;;9.38;3.08;;;13.00;55.60;;;;;;1054195;28;20335;-77
2021/03/18 01:48:47;;;;;;;11.95;3.40;;;13.00;55.60;;;;;;1051553;28;20016;-77
2021/03/18 01:49:19;;;;;;;14.77;3.75;;;13.00;55.50;;;;;;1051435;28;20407;-78
2021/03/18 01:49:50;;;;;;;11.93;3.30;;;13.00;55.50;;;;;;1045334;28;20009;-78
2021/03/18 01:50:27;;;;;;;11.50;3.55;;;13.00;55.50;;;;;;1047612;28;20048;-77
2021/03/18 01:51:00;;;;;;;10.40;3.60;;;12.90;55.50;;;;;;1041127;28;20116;-77
2021/03/18 01:51:32;;;;;;;10.40;3.03;;;12.90;55.60;;;;;;1044667;28;20017;-77
2021/03/18 01:52:03;;;;;;;9.30;3.30;;;13.00;55.30;;;;;;1045322;28;20339;-77
2021/03/18 01:52:36;;;;;;;9.77;3.58;;;12.90;55.20;;;;;;1047743;28;20405;-77
2021/03/18 01:53:07;;;;;;;9.75;3.25;;;12.90;55.30;;;;;;1047464;28;20481;-77
2021/03/18 01:53:39;;;;;;;11.02;3.22;;;12.90;55.40;;;;;;1046588;28;20108;-77
2021/03/18 01:54:12;;;;;;;11.07;3.72;;;12.80;55.60;;;;;;1041048;28;20352;-78
2021/03/18 01:54:43;;;;;;;11.10;3.58;;;12.80;55.40;;;;;;1045436;28;20512;-77
2021/03/18 01:55:22;;;;;;;10.52;3.22;;;12.80;55.80;;;;;;1045708;28;20120;-77
2021/03/18 01:55:56;;;;;;;12.43;3.78;;;12.80;55.90;;;;;;1045294;28;20049;-77
2021/03/18 01:56:28;;;;;;;9.05;3.20;;;12.80;55.60;;;;;;1043001;28;20471;-77
2021/03/18 01:56:59;;;;;;;10.75;3.35;;;12.80;55.60;;;;;;1045526;28;20049;-78
2021/03/18 01:57:32;;;;;;;13.77;6.95;;;12.80;55.70;;;;;;1050508;28;20049;-77
2021/03/18 01:58:05;;;;;;;14.27;5.68;;;12.80;55.80;;;;;;1051769;28;20027;-77
2021/03/18 01:58:37;;;;;;;24.92;10.95;;;12.80;55.70;;;;;;1049479;28;20019;-77
2021/03/18 01:59:08;;;;;;;31.83;12.38;;;12.80;55.50;;;;;;1042438;28;20033;-77
2021/03/18 01:59:40;;;;;;;25.98;9.52;;;12.90;55.20;;;;;;1043140;28;20079;-77
2021/03/18 02:00:12;;;;;;;82.22;31.17;;;12.90;55.00;;;;;;1043700;28;20049;-76
2021/03/18 02:00:47;;;;;;;37.83;14.10;;;12.90;54.90;;;;;;1042949;28;20045;-77
2021/03/18 02:01:19;;;;;;;14.95;5.15;;;12.90;55.00;;;;;;1049744;28;20154;-77
2021/03/18 02:01:51;;;;;;;14.10;6.13;;;12.90;55.00;;;;;;1052702;28;20024;-78
2021/03/18 02:02:23;;;;;;;13.98;4.72;;;13.00;55.20;;;;;;1054292;28;20012;-77
2021/03/18 02:02:56;;;;;;;13.63;4.13;;;13.00;55.40;;;;;;1047659;28;20045;-77
2021/03/18 02:03:27;;;;;;;12.95;3.40;;;12.90;55.40;;;;;;1049730;28;20013;-77
2021/03/18 02:03:59;;;;;;;11.43;3.08;;;12.90;55.30;;;;;;1046235;28;20081;-77
2021/03/18 02:04:30;;;;;;;10.73;3.30;;;12.80;55.40;;;;;;1045798;28;20020;-77
2021/03/18 02:05:03;;;;;;;9.88;3.40;;;12.90;55.40;;;;;;1054450;28;20047;-78
2021/03/18 02:05:34;;;;;;;8.50;3.25;;;12.90;55.40;;;;;;1052855;28;20074;-78
2021/03/18 02:06:06;;;;;;;8.95;3.25;;;12.80;55.40;;;;;;1052451;28;20017;-77
2021/03/18 02:06:38;;;;;;;10.35;3.40;;;12.80;55.50;;;;;;1047474;28;20029;-77
2021/03/18 02:07:10;;;;;;;12.52;3.38;;;12.90;55.30;;;;;;1047506;28;20036;-77
2021/03/18 02:07:41;;;;;;;8.32;3.00;;;12.90;55.00;;;;;;1044903;28;20471;-77
2021/03/18 02:08:13;;;;;;;10.82;3.17;;;12.90;55.10;;;;;;1041634;28;20029;-78
2021/03/18 02:08:45;;;;;;;9.35;2.92;;;12.90;55.30;;;;;;1040738;28;20021;-78
2021/03/18 02:09:16;;;;;;;10.73;3.53;;;12.80;55.30;;;;;;1041910;28;20045;-77
2021/03/18 02:09:47;;;;;;;11.45;3.13;;;12.80;55.40;;;;;;1041954;28;20018;-77
2021/03/18 02:10:30;;;;;;;9.32;3.13;;;12.80;55.30;;;;;;1045529;28;20158;-77
2021/03/18 02:11:03;;;;;;;12.05;3.10;;;12.80;55.20;;;;;;1041236;28;20372;-77
2021/03/18 02:11:35;;;;;;;11.77;3.25;;;12.80;54.90;;;;;;1043369;28;20100;-77
2021/03/18 02:12:06;;;;;;;9.30;3.22;;;12.80;55.00;;;;;;1045706;28;20014;-77
2021/03/18 02:12:38;;;;;;;10.77;3.28;;;12.80;55.10;;;;;;1047181;28;20025;-77
2021/03/18 02:13:12;;;;;;;7.95;3.00;;;12.80;55.20;;;;;;1046434;28;20038;-76
2021/03/18 02:13:43;;;;;;;13.75;3.75;;;12.80;55.30;;;;;;1048497;28;20067;-81
2021/03/18 02:14:15;;;;;;;13.15;3.33;;;12.80;55.30;;;;;;1045152;28;20021;-79
2021/03/18 02:14:47;;;;;;;7.80;3.20;;;12.80;55.20;;;;;;1043029;28;20100;-78
2021/03/18 02:15:22;;;;;;;9.75;3.10;;;12.80;55.30;;;;;;1044902;28;20120;-78
2021/03/18 02:16:00;;;;;;;10.70;3.22;;;12.80;55.30;;;;;;1042180;28;20009;-78
2021/03/18 02:16:34;;;;;;;12.85;3.35;;;12.80;55.40;;;;;;1041238;28;20013;-79
2021/03/18 02:17:08;;;;;;;10.43;3.25;;;12.80;55.80;;;;;;1042874;28;20059;-79
2021/03/18 02:17:46;;;;;;;8.18;3.10;;;12.80;55.10;;;;;;1046914;28;20017;-77
2021/03/18 02:18:51;;;;;;;9.25;3.10;;;12.80;55.30;;;;;;1047619;28;20515;-76
2021/03/18 02:19:40;;;;;;;9.65;3.45;;;12.80;55.40;;;;;;1050456;28;20099;-76
2021/03/18 02:20:51;;;;;;;8.73;3.22;;;12.70;55.40;;;;;;1048126;28;20052;-77
2021/03/18 02:21:37;;;;;;;8.70;2.88;;;12.70;55.40;;;;;;1046526;28;20027;-77
2021/03/18 02:22:54;;;;;;;8.57;3.20;;;12.70;55.20;;;;;;1045287;28;20465;-77
2021/03/18 02:23:47;;;;;;;11.60;3.42;;;12.70;55.30;;;;;;1032360;28;20025;-76
2021/03/18 02:24:22;;;;;;;12.82;3.70;;;12.70;55.20;;;;;;1040015;28;20019;-76
2021/03/18 02:25:05;;;;;;;9.95;3.20;;;12.70;55.20;;;;;;1046078;28;20024;-76
2021/03/18 02:25:47;;;;;;;8.85;3.15;;;12.70;55.30;;;;;;1049081;28;20021;-76
2021/03/18 02:26:33;;;;;;;9.57;2.90;;;12.70;55.40;;;;;;1049650;28;20008;-77
2021/03/18 02:27:20;;;;;;;13.15;3.75;;;12.70;55.60;;;;;;1051846;28;20070;-77
2021/03/18 02:28:00;;;;;;;12.10;3.33;;;12.70;55.80;;;;;;1050161;28;20016;-77
2021/03/18 02:28:45;;;;;;;10.07;3.13;;;12.60;55.60;;;;;;1049123;28;20103;-78
2021/03/18 02:29:17;;;;;;;14.57;3.60;;;12.70;55.80;;;;;;1052553;28;20044;-77
2021/03/18 02:30:33;;;;;;;10.13;3.05;;;12.70;55.80;;;;;;1049096;28;20446;-79
2021/03/18 02:31:12;;;;;;;12.20;3.33;;;12.60;55.70;;;;;;1037989;28;20439;-78
2021/03/18 02:32:15;;;;;;;12.32;3.50;;;12.60;55.40;;;;;;1044316;28;20131;-77
2021/03/18 02:33:18;;;;;;;7.63;3.33;;;12.70;55.30;;;;;;1028773;28;20440;-78
2021/03/18 02:34:10;;;;;;;7.20;2.97;;;12.70;55.40;;;;;;1028796;28;20033;-77
2021/03/18 02:35:17;;;;;;;11.85;3.40;;;12.70;55.30;;;;;;1033928;28;20063;-76
2021/03/18 02:35:58;;;;;;;10.80;3.42;;;12.70;55.60;;;;;;1042438;28;20022;-77
2021/03/18 02:36:40;;;;;;;12.13;3.67;;;12.70;55.40;;;;;;1047759;28;20354;-77
2021/03/18 02:37:13;;;;;;;9.15;3.10;;;12.70;55.60;;;;;;1044601;28;20044;-77
2021/03/18 02:37:57;;;;;;;9.95;3.50;;;12.70;55.60;;;;;;1044654;28;20032;-78
2021/03/18 02:39:02;;;;;;;11.25;3.30;;;12.70;55.60;;;;;;1047240;28;20119;-78
2021/03/18 02:39:39;;;;;;;10.45;3.42;;;12.70;55.80;;;;;;1039423;28;20025;-77
2021/03/18 02:40:21;;;;;;;13.27;3.63;;;12.70;55.90;;;;;;1039725;28;20014;-78
2021/03/18 02:41:06;;;;;;;9.90;3.15;;;12.60;56.20;;;;;;1047356;28;20020;-77
2021/03/18 02:41:51;;;;;;;11.73;3.42;;;12.70;56.20;;;;;;1043412;28;20112;-78
2021/03/18 02:42:24;;;;;;;11.32;3.35;;;12.70;56.10;;;;;;1044700;28;20021;-78
2021/03/18 02:42:59;;;;;;;12.43;3.30;;;12.70;56.10;;;;;;1048020;28;20012;-77
2021/03/18 02:43:35;;;;;;;8.85;3.20;;;12.70;56.20;;;;;;1046325;28;20016;-77
2021/03/18 02:44:22;;;;;;;14.80;3.50;;;12.70;56.20;;;;;;1044884;28;20036;-79
2021/03/18 02:44:56;;;;;;;12.95;3.20;;;12.70;56.40;;;;;;1048636;28;20025;-77
2021/03/18 02:45:36;;;;;;;14.48;3.65;;;12.70;56.50;;;;;;1046120;28;20474;-77
2021/03/18 02:46:08;;;;;;;12.15;3.20;;;12.70;56.70;;;;;;1041871;28;20018;-76
2021/03/18 02:46:43;;;;;;;11.18;3.58;;;12.70;56.70;;;;;;1044213;28;20017;-78
2021/03/18 02:47:15;;;;;;;10.65;3.30;;;12.70;56.80;;;;;;1045106;28;20021;-77
2021/03/18 02:47:53;;;;;;;12.20;3.53;;;12.70;56.60;;;;;;1047757;28;20045;-77
2021/03/18 02:48:32;;;;;;;9.63;3.53;;;12.70;56.60;;;;;;1048308;28;20451;-77
2021/03/18 02:49:05;;;;;;;11.40;3.30;;;12.70;56.70;;;;;;1045286;28;20459;-77
2021/03/18 02:49:41;;;;;;;8.75;3.22;;;12.70;56.70;;;;;;1047026;28;20460;-77
2021/03/18 02:50:14;;;;;;;8.77;3.10;;;12.70;56.70;;;;;;1040930;28;20087;-77
2021/03/18 02:50:46;;;;;;;11.07;3.60;;;12.70;56.60;;;;;;1046052;28;20131;-77
2021/03/18 02:51:20;;;;;;;10.60;3.40;;;12.70;56.70;;;;;;1046556;28;20408;-77
2021/03/18 02:51:53;;;;;;;14.30;3.67;;;12.70;56.90;;;;;;1044794;28;20187;-77
2021/03/18 02:52:29;;;;;;;14.48;3.25;;;12.70;56.90;;;;;;1044883;28;20024;-77
2021/03/18 02:53:04;;;;;;;11.52;3.10;;;12.70;56.90;;;;;;1040600;28;20049;-77
2021/03/18 02:53:36;;;;;;;8.45;3.00;;;12.70;56.80;;;;;;1038697;28;20459;-77
2021/03/18 02:54:13;;;;;;;13.13;3.50;;;12.70;56.90;;;;;;1042828;28;20440;-77
2021/03/18 02:54:46;;;;;;;12.75;3.35;;;12.70;56.80;;;;;;1042628;28;20017;-77
2021/03/18 02:55:17;;;;;;;12.18;3.28;;;12.70;56.90;;;;;;1044986;28;20024;-77
2021/03/18 02:55:50;;;;;;;12.45;3.50;;;12.70;57.00;;;;;;1052767;28;20016;-77
2021/03/18 02:56:23;;;;;;;7.47;3.05;;;12.70;57.00;;;;;;1049357;28;20012;-77
2021/03/18 02:56:58;;;;;;;11.23;3.25;;;12.60;56.90;;;;;;1044578;28;20049;-77
2021/03/18 02:57:33;;;;;;;10.70;3.08;;;12.60;57.00;;;;;;1043602;28;20037;-77